createdAt,value
2023-04-20T00:02:03.407Z,100493.73
2023-04-20T00:04:36.772Z,100485.92
2023-04-20T00:07:08.901Z,100478.20
2023-04-20T00:09:40.947Z,100475.69
2023-04-20T00:12:13.251Z,100481.05
2023-04-20T00:14:45.186Z,100473.39
2023-04-20T00:17:17.408Z,100474.34
2023-04-20T00:19:49.612Z,100477.72
2023-04-20T00:22:21.825Z,100475.09
2023-04-20T00:24:54.139Z,100475.15
2023-04-20T00:27:26.154Z,100475.32
2023-04-20T00:29:58.139Z,100476.42
2023-04-20T00:32:30.596Z,100473.25
2023-04-20T00:35:02.670Z,100473.47
2023-04-20T00:37:34.788Z,100479.59
2023-04-20T00:40:07.915Z,100473.64
2023-04-20T00:42:41.605Z,100469.52
2023-04-20T00:45:13.802Z,100460.84
2023-04-20T00:47:49.255Z,100462.80
2023-04-20T00:50:23.203Z,100459.45
2023-04-20T00:52:55.641Z,100459.62
2023-04-20T00:55:29.482Z,100454.44
2023-04-20T00:58:03.891Z,100457.11
2023-04-20T01:00:37.704Z,100451.87
2023-04-20T01:03:13.790Z,100444.92
2023-04-20T01:05:49.130Z,100441.38
2023-04-20T01:08:22.956Z,100447.55
2023-04-20T01:10:57.430Z,100443.28
2023-04-20T01:13:29.628Z,100442.47
2023-04-20T01:16:05.817Z,100438.34
2023-04-20T01:18:48.641Z,100434.19
2023-04-20T01:21:27.998Z,100436.92
2023-04-20T01:24:01.904Z,100434.34
2023-04-20T01:26:38.325Z,100432.66
2023-04-20T01:29:13.989Z,100428.44
2023-04-20T01:31:48.993Z,100431.98
2023-04-20T01:34:24.179Z,100437.33
2023-04-20T01:36:59.407Z,100426.91
2023-04-20T01:39:31.588Z,100427.88
2023-04-20T01:42:05.028Z,100428.03
2023-04-20T01:44:39.175Z,100422.07
2023-04-20T01:47:12.713Z,100424.02
2023-04-20T01:49:45.290Z,100419.80
2023-04-20T01:52:19.046Z,100421.66
2023-04-20T01:54:53.590Z,100425.25
2023-04-20T01:57:25.758Z,100425.45
2023-04-20T01:59:57.925Z,100420.31
2023-04-20T02:02:32.157Z,100418.72
2023-04-20T02:05:06.230Z,100417.17
2023-04-20T02:07:40.476Z,100411.98
2023-04-20T02:10:13.974Z,100408.63
2023-04-20T02:12:50.597Z,100414.89
2023-04-20T02:15:26.006Z,100407.95
2023-04-20T02:17:58.978Z,100413.30
2023-04-20T02:20:31.645Z,100412.48
2023-04-20T02:23:05.533Z,100409.13
2023-04-20T02:25:39.982Z,100415.38
2023-04-20T02:28:12.234Z,100415.44
2023-04-20T02:30:44.442Z,100418.09
2023-04-20T02:33:18.271Z,100406.80
2023-04-20T02:35:50.586Z,100408.50
2023-04-20T02:38:22.735Z,100417.91
2023-04-20T02:40:56.631Z,100415.18
2023-04-20T02:43:30.785Z,100413.34
2023-04-20T02:46:03.724Z,100415.81
2023-04-20T02:48:36.027Z,100418.19
2023-04-20T02:51:08.566Z,100411.83
2023-04-20T02:53:42.407Z,100416.77
2023-04-20T02:56:19.043Z,100410.51
2023-04-20T02:58:53.350Z,100406.81
2023-04-20T03:01:38.690Z,100411.89
2023-04-20T03:04:13.006Z,100409.75
2023-04-20T03:06:46.825Z,100409.75
2023-04-20T03:09:20.522Z,100408.66
2023-04-20T03:12:02.308Z,100410.14
2023-04-20T03:14:36.595Z,100403.88
2023-04-20T03:17:08.809Z,100401.14
2023-04-20T03:19:41.711Z,100401.86
2023-04-20T03:22:13.869Z,100404.32
2023-04-20T03:24:48.143Z,100391.06
2023-04-20T03:27:22.026Z,100403.02
2023-04-20T03:29:56.188Z,100387.17
2023-04-20T03:32:28.812Z,100392.97
2023-04-20T03:35:02.227Z,100390.14
2023-04-20T03:37:34.735Z,100395.09
2023-04-20T03:40:08.466Z,100386.19
2023-04-20T03:42:42.071Z,100389.53
2023-04-20T03:45:14.600Z,100393.67
2023-04-20T03:47:46.779Z,100385.63
2023-04-20T03:50:19.319Z,100396.75
2023-04-20T03:52:52.931Z,100387.73
2023-04-20T03:55:25.332Z,100391.88
2023-04-20T03:57:59.256Z,100395.03
2023-04-20T04:00:32.929Z,100397.41
2023-04-20T04:03:07.640Z,100389.32
2023-04-20T04:05:40.104Z,100387.22
2023-04-20T04:08:12.410Z,100384.19
2023-04-20T04:10:44.935Z,100390.88
2023-04-20T04:13:17.288Z,100379.20
2023-04-20T04:15:50.349Z,100373.52
2023-04-20T04:18:23.082Z,100376.72
2023-04-20T04:20:55.686Z,100372.84
2023-04-20T04:23:28.375Z,100373.28
2023-04-20T04:26:08.349Z,100375.41
2023-04-20T04:28:42.817Z,100372.28
2023-04-20T04:31:21.738Z,100374.47
2023-04-20T04:33:54.629Z,100375.73
2023-04-20T04:36:28.663Z,100370.02
2023-04-20T04:39:02.340Z,100377.36
2023-04-20T04:41:34.550Z,100369.88
2023-04-20T04:44:11.279Z,100370.36
2023-04-20T04:46:45.901Z,100369.89
2023-04-20T04:49:19.039Z,100371.30
2023-04-20T04:51:51.546Z,100363.88
2023-04-20T04:54:24.784Z,100363.59
2023-04-20T04:56:58.344Z,100357.12
2023-04-20T04:59:31.277Z,100350.70
2023-04-20T05:02:03.767Z,100358.31
2023-04-20T05:04:36.293Z,100351.95
2023-04-20T05:07:09.984Z,100353.39
2023-04-20T05:09:42.533Z,100353.09
2023-04-20T05:12:14.665Z,100348.27
2023-04-20T05:14:46.744Z,100345.30
2023-04-20T05:17:19.676Z,100348.46
2023-04-20T05:19:51.935Z,100338.36
2023-04-20T05:22:24.794Z,100342.23
2023-04-20T05:24:57.303Z,100347.00
2023-04-20T05:27:29.441Z,100334.20
2023-04-20T05:30:13.126Z,100339.84
2023-04-20T05:32:35.833Z,100336.69
2023-04-20T05:35:08.683Z,100337.11
2023-04-20T05:37:40.848Z,100328.67
2023-04-20T05:40:13.172Z,100332.41
2023-04-20T05:42:45.523Z,100333.44
2023-04-20T05:45:17.925Z,100331.70
2023-04-20T05:47:58.171Z,100328.31
2023-04-20T05:50:31.121Z,100325.17
2023-04-20T05:53:03.590Z,100322.47
2023-04-20T05:55:36.241Z,100328.66
2023-04-20T05:58:08.583Z,100321.03
2023-04-20T06:00:40.844Z,100322.06
2023-04-20T06:03:13.705Z,100324.00
2023-04-20T06:05:46.314Z,100327.87
2023-04-20T06:08:19.550Z,100318.31
2023-04-20T06:10:59.496Z,100318.69
2023-04-20T06:13:31.864Z,100319.14
2023-04-20T06:16:06.208Z,100319.14
2023-04-20T06:18:39.155Z,100308.39
2023-04-20T06:21:12.007Z,100307.16
2023-04-20T06:23:46.014Z,100317.09
2023-04-20T06:26:18.945Z,100309.41
2023-04-20T06:28:53.251Z,100298.61
2023-04-20T06:31:25.568Z,100308.14
2023-04-20T06:33:59.358Z,100296.02
2023-04-20T06:36:31.939Z,100296.12
2023-04-20T06:39:04.980Z,100289.06
2023-04-20T06:41:37.762Z,100284.73
2023-04-20T06:44:10.802Z,100285.19
2023-04-20T06:46:43.071Z,100284.48
2023-04-20T06:49:17.060Z,100279.19
2023-04-20T06:51:49.015Z,100279.01
2023-04-20T06:54:21.160Z,100283.38
2023-04-20T06:56:53.413Z,100274.11
2023-04-20T06:59:26.778Z,100276.12
2023-04-20T07:01:59.166Z,100267.58
2023-04-20T07:04:31.590Z,100262.64
2023-04-20T07:07:04.588Z,100257.02
2023-04-20T07:09:37.836Z,100253.95
2023-04-20T07:12:11.603Z,100249.25
2023-04-20T07:14:43.707Z,100254.50
2023-04-20T07:17:17.495Z,100252.65
2023-04-20T07:19:49.919Z,100258.23
2023-04-20T07:22:23.059Z,100258.66
2023-04-20T07:24:55.258Z,100258.10
2023-04-20T07:27:29.669Z,100256.94
2023-04-20T07:30:02.127Z,100254.67
2023-04-20T07:32:37.201Z,100258.29
2023-04-20T07:35:10.295Z,100258.67
2023-04-20T07:37:42.873Z,100259.81
2023-04-20T07:40:16.963Z,100262.73
2023-04-20T07:42:49.740Z,100263.98
2023-04-20T07:45:21.956Z,100256.59
2023-04-20T07:47:55.282Z,100245.85
2023-04-20T07:50:27.703Z,100244.77
2023-04-20T07:53:00.140Z,100245.86
2023-04-20T07:55:32.793Z,100242.94
2023-04-20T07:58:06.811Z,100244.40
2023-04-20T08:00:39.970Z,100248.40
2023-04-20T08:03:12.417Z,100238.69
2023-04-20T08:05:45.029Z,100237.82
2023-04-20T08:08:18.158Z,100238.99
2023-04-20T08:10:51.101Z,100240.71
2023-04-20T08:13:23.292Z,100234.41
2023-04-20T08:15:55.860Z,100240.71
2023-04-20T08:18:30.012Z,100240.57
2023-04-20T08:21:02.262Z,100239.20
2023-04-20T08:23:34.665Z,100221.09
2023-04-20T08:26:08.416Z,100227.75
2023-04-20T08:28:40.488Z,100220.37
2023-04-20T08:31:14.467Z,100214.62
2023-04-20T08:33:47.412Z,100204.30
2023-04-20T08:36:21.167Z,100209.73
2023-04-20T08:38:56.135Z,100212.31
2023-04-20T08:41:28.550Z,100210.52
2023-04-20T08:44:00.961Z,100204.22
2023-04-20T08:46:36.159Z,100208.59
2023-04-20T08:49:11.885Z,100207.75
2023-04-20T08:51:45.892Z,100189.19
2023-04-20T08:54:18.693Z,100197.08
2023-04-20T08:56:51.393Z,100190.86
2023-04-20T08:59:23.677Z,100189.17
2023-04-20T09:01:56.223Z,100179.30
2023-04-20T09:04:28.764Z,100196.39
2023-04-20T09:07:02.776Z,100197.18
2023-04-20T09:09:35.316Z,100204.20
2023-04-20T09:12:10.522Z,100193.98
2023-04-20T09:14:47.307Z,100190.22
2023-04-20T09:17:22.557Z,100181.69
2023-04-20T09:19:55.453Z,100181.28
2023-04-20T09:22:39.328Z,100186.03
2023-04-20T09:25:20.242Z,100186.03
2023-04-20T09:28:03.264Z,100176.36
2023-04-20T09:30:51.904Z,100174.97
2023-04-20T09:33:27.202Z,100169.48
2023-04-20T09:36:07.070Z,100171.63
2023-04-20T09:38:40.912Z,100173.84
2023-04-20T09:41:13.790Z,100172.58
2023-04-20T09:43:46.545Z,100172.03
2023-04-20T09:46:18.965Z,100166.94
2023-04-20T09:48:52.416Z,100162.09
2023-04-20T09:51:31.964Z,100164.98
2023-04-20T09:54:05.978Z,100163.41
2023-04-20T09:56:39.820Z,100163.05
2023-04-20T09:59:14.035Z,100156.98
2023-04-20T10:01:46.384Z,100148.80
2023-04-20T10:04:19.106Z,100155.33
2023-04-20T10:06:58.179Z,100147.06
2023-04-20T10:09:31.565Z,100142.73
2023-04-20T10:12:09.171Z,100147.66
2023-04-20T10:14:42.214Z,100142.71
2023-04-20T10:17:14.335Z,100133.17
2023-04-20T10:19:47.662Z,100140.51
2023-04-20T10:22:33.999Z,100124.59
2023-04-20T10:25:09.549Z,100128.14
2023-04-20T10:27:42.129Z,100126.19
2023-04-20T10:30:15.736Z,100136.15
2023-04-20T10:32:49.006Z,100131.75
2023-04-20T10:35:21.543Z,100131.70
2023-04-20T10:37:53.936Z,100137.17
2023-04-20T10:40:27.866Z,100130.11
2023-04-20T10:42:59.901Z,100121.11
2023-04-20T10:45:42.973Z,100123.45
2023-04-20T10:48:17.832Z,100126.00
2023-04-20T10:50:49.565Z,100119.71
2023-04-20T10:53:23.877Z,100119.71
2023-04-20T10:56:02.579Z,100119.03
2023-04-20T10:58:34.992Z,100117.73
2023-04-20T11:01:07.409Z,100113.48
2023-04-20T11:03:40.492Z,100119.94
2023-04-20T11:06:12.895Z,100112.49
2023-04-20T11:08:45.082Z,100114.55
2023-04-20T11:11:27.101Z,100112.23
2023-04-20T11:14:13.235Z,100098.02
2023-04-20T11:16:51.582Z,100107.34
2023-04-20T11:19:29.585Z,100091.92
2023-04-20T11:22:06.845Z,100091.00
2023-04-20T11:24:40.900Z,100097.22
2023-04-20T11:27:22.722Z,100092.16
2023-04-20T11:30:00.154Z,100089.00
2023-04-20T11:32:36.645Z,100089.16
2023-04-20T11:35:11.357Z,100094.91
2023-04-20T11:37:51.724Z,100084.97
2023-04-20T11:40:25.693Z,100090.01
2023-04-20T11:43:00.107Z,100090.92
2023-04-20T11:45:36.192Z,100095.47
2023-04-20T11:48:09.195Z,100086.61
2023-04-20T11:50:42.664Z,100080.01
2023-04-20T11:53:15.276Z,100076.34
2023-04-20T11:55:47.780Z,100073.41
2023-04-20T11:58:19.740Z,100069.59
2023-04-20T12:00:52.200Z,100067.48
2023-04-20T12:03:25.174Z,100063.38
2023-04-20T12:05:57.416Z,100068.19
2023-04-20T12:08:29.565Z,100062.75
2023-04-20T12:11:01.758Z,100053.87
2023-04-20T12:13:34.696Z,100047.53
2023-04-20T12:16:07.737Z,100047.59
2023-04-20T12:18:40.000Z,100048.10
2023-04-20T12:21:13.202Z,100040.25
2023-04-20T12:23:45.411Z,100031.12
2023-04-20T12:26:18.077Z,100023.58
2023-04-20T12:28:50.383Z,100014.13
2023-04-20T12:31:26.335Z,100014.72
2023-04-20T12:33:58.158Z,100008.67
2023-04-20T12:36:30.453Z,100002.32
2023-04-20T12:39:03.705Z,99993.02
2023-04-20T12:41:36.383Z,99991.97
2023-04-20T12:44:10.725Z,99982.84
2023-04-20T12:46:42.532Z,99972.02
2023-04-20T12:49:14.660Z,99986.59
2023-04-20T12:51:46.910Z,99973.88
2023-04-20T12:54:19.763Z,99974.73
2023-04-20T12:56:51.979Z,99964.14
2023-04-20T12:59:24.070Z,99968.16
2023-04-20T13:01:56.605Z,99975.14
2023-04-20T13:04:29.382Z,99962.59
2023-04-20T13:07:01.578Z,99972.72
2023-04-20T13:09:33.662Z,99972.88
2023-04-20T13:12:06.265Z,99968.44
2023-04-20T13:14:38.764Z,99963.52
2023-04-20T13:17:10.838Z,99965.14
2023-04-20T13:19:43.161Z,99964.29
2023-04-20T13:22:18.830Z,99961.31
2023-04-20T13:24:50.345Z,99951.83
2023-04-20T13:27:22.440Z,99959.42
2023-04-20T13:30:13.225Z,99948.55
2023-04-20T13:32:45.737Z,99954.25
2023-04-20T13:35:18.795Z,99954.47
2023-04-20T13:37:51.259Z,99954.81
2023-04-20T13:40:23.779Z,99954.01
2023-04-20T13:42:57.995Z,99958.45
2023-04-20T13:45:31.061Z,99959.97
2023-04-20T13:48:03.407Z,99963.36
2023-04-20T13:50:35.691Z,99969.59
2023-04-20T13:53:08.133Z,99970.09
2023-04-20T13:55:40.658Z,99973.86
2023-04-20T13:58:12.658Z,99970.95
2023-04-20T14:00:44.872Z,99967.89
2023-04-20T14:03:19.036Z,99972.81
2023-04-20T14:05:51.877Z,99973.92
2023-04-20T14:08:24.312Z,99969.20
2023-04-20T14:10:58.264Z,99964.09
2023-04-20T14:13:30.602Z,99975.23
2023-04-20T14:16:03.085Z,99973.06
2023-04-20T14:18:35.841Z,99973.99
2023-04-20T14:21:08.240Z,99972.47
2023-04-20T14:23:40.832Z,99969.87
2023-04-20T14:26:13.725Z,99970.66
2023-04-20T14:28:47.438Z,99967.68
2023-04-20T14:31:20.159Z,99969.64
2023-04-20T14:33:52.618Z,99964.45
2023-04-20T14:36:26.976Z,99970.02
2023-04-20T14:39:00.941Z,99965.67
2023-04-20T14:41:35.639Z,99967.61
2023-04-20T14:44:08.303Z,99969.32
2023-04-20T14:46:42.685Z,99969.32
2023-04-20T14:49:15.297Z,99971.37
2023-04-20T14:51:47.711Z,99975.14
2023-04-20T14:54:21.145Z,99973.83
2023-04-20T14:56:53.647Z,99974.36
2023-04-20T14:59:27.217Z,99974.73
2023-04-20T15:02:02.782Z,99980.58
2023-04-20T15:04:33.906Z,99966.09
2023-04-20T15:07:06.999Z,99973.37
2023-04-20T15:09:39.735Z,99971.92
2023-04-20T15:12:12.334Z,99966.12
2023-04-20T15:14:44.906Z,99975.80
2023-04-20T15:17:17.393Z,99965.80
2023-04-20T15:19:50.527Z,99977.78
2023-04-20T15:22:24.674Z,99963.75
2023-04-20T15:24:57.488Z,99970.63
2023-04-20T15:27:29.945Z,99966.88
2023-04-20T15:30:02.080Z,99962.05
2023-04-20T15:32:35.677Z,99959.84
2023-04-20T15:35:08.475Z,99958.88
2023-04-20T15:37:40.968Z,99960.55
2023-04-20T15:40:13.977Z,99952.58
2023-04-20T15:42:46.884Z,99957.89
2023-04-20T15:45:20.215Z,99958.05
2023-04-20T15:47:52.590Z,99960.22
2023-04-20T15:50:25.261Z,99956.39
2023-04-20T15:52:58.069Z,99961.36
2023-04-20T15:55:32.119Z,99968.14
2023-04-20T15:58:04.805Z,99958.96
2023-04-20T16:00:38.521Z,99956.08
2023-04-20T16:03:11.147Z,99964.91
2023-04-20T16:05:43.964Z,99969.75
2023-04-20T16:08:18.323Z,99954.55
2023-04-20T16:10:50.490Z,99958.06
2023-04-20T16:13:23.001Z,99959.85
2023-04-20T16:15:56.327Z,99956.33
2023-04-20T16:18:29.865Z,99963.33
2023-04-20T16:21:02.346Z,99962.33
2023-04-20T16:23:35.482Z,99960.62
2023-04-20T16:26:08.249Z,99934.88
2023-04-20T16:28:41.401Z,99953.70
2023-04-20T16:31:14.087Z,99941.31
2023-04-20T16:33:46.874Z,99941.31
2023-04-20T16:36:19.392Z,99951.12
2023-04-20T16:38:51.637Z,99943.22
2023-04-20T16:41:25.492Z,99939.89
2023-04-20T16:43:57.716Z,99941.64
2023-04-20T16:46:29.766Z,99935.55
2023-04-20T16:49:01.909Z,99931.25
2023-04-20T16:51:34.722Z,99939.21
2023-04-20T16:54:07.337Z,99941.80
2023-04-20T16:56:40.131Z,99942.45
2023-04-20T16:59:12.815Z,99945.06
2023-04-20T17:01:45.421Z,99945.81
2023-04-20T17:04:18.850Z,99939.69
2023-04-20T17:06:51.993Z,99942.22
2023-04-20T17:09:24.627Z,99947.28
2023-04-20T17:11:58.791Z,99945.27
2023-04-20T17:14:32.380Z,99943.25
2023-04-20T17:17:04.667Z,99942.82
2023-04-20T17:19:38.453Z,99938.78
2023-04-20T17:22:11.162Z,99943.53
2023-04-20T17:24:43.357Z,99942.05
2023-04-20T17:27:16.140Z,99942.53
2023-04-20T17:29:48.317Z,99948.77
2023-04-20T17:32:20.649Z,99949.19
2023-04-20T17:34:54.006Z,99952.03
2023-04-20T17:37:26.100Z,99957.50
2023-04-20T17:39:58.239Z,99948.91
2023-04-20T17:42:30.303Z,99958.55
2023-04-20T17:45:02.882Z,99956.77
2023-04-20T17:47:35.631Z,99961.20
2023-04-20T17:50:09.037Z,99956.84
2023-04-20T17:52:41.887Z,99956.20
2023-04-20T17:55:14.532Z,99961.58
2023-04-20T17:57:46.790Z,99956.58
2023-04-20T18:00:20.841Z,99958.78
2023-04-20T18:02:53.185Z,99962.47
2023-04-20T18:05:25.752Z,99962.84
2023-04-20T18:07:57.832Z,99958.61
2023-04-20T18:10:30.170Z,99964.11
2023-04-20T18:13:02.732Z,99945.82
2023-04-20T18:15:35.156Z,99963.66
2023-04-20T18:18:07.671Z,99958.56
2023-04-20T18:20:40.545Z,99960.75
2023-04-20T18:23:13.963Z,99962.72
2023-04-20T18:25:46.561Z,99964.89
2023-04-20T18:28:19.142Z,99967.84
2023-04-20T18:30:51.589Z,99956.83
2023-04-20T18:33:24.997Z,99964.92
2023-04-20T18:35:57.760Z,99961.83
2023-04-20T18:38:30.780Z,99955.99
2023-04-20T18:41:03.707Z,99958.05
2023-04-20T18:43:36.717Z,99947.70
2023-04-20T18:46:09.204Z,99953.90
2023-04-20T18:48:41.316Z,99952.86
2023-04-20T18:51:13.708Z,99956.27
2023-04-20T18:53:45.952Z,99951.73
2023-04-20T18:56:18.055Z,99949.22
2023-04-20T18:58:50.116Z,99958.13
2023-04-20T19:01:22.430Z,99954.67
2023-04-20T19:03:57.100Z,99956.53
2023-04-20T19:06:28.691Z,99954.94
2023-04-20T19:09:01.484Z,99953.25
2023-04-20T19:11:33.605Z,99957.75
2023-04-20T19:14:05.978Z,99953.16
2023-04-20T19:16:38.825Z,99953.81
2023-04-20T19:19:11.897Z,99961.81
2023-04-20T19:21:44.180Z,99947.80
2023-04-20T19:24:16.882Z,99947.03
2023-04-20T19:26:49.793Z,99948.63
2023-04-20T19:29:21.999Z,99946.08
2023-04-20T19:31:54.345Z,99950.52
2023-04-20T19:34:26.324Z,99949.75
2023-04-20T19:36:58.560Z,99962.02
2023-04-20T19:39:32.590Z,99964.75
2023-04-20T19:42:05.083Z,99963.16
2023-04-20T19:44:37.186Z,99967.66
2023-04-20T19:47:09.271Z,99962.69
2023-04-20T19:49:41.346Z,99959.19
2023-04-20T19:52:13.600Z,99964.64
2023-04-20T19:54:46.125Z,99962.30
2023-04-20T19:57:18.517Z,99961.70
2023-04-20T19:59:53.969Z,99964.64
2023-04-20T20:02:26.398Z,99956.73
2023-04-20T20:04:58.626Z,99958.56
2023-04-20T20:07:30.882Z,99961.49
2023-04-20T20:10:03.421Z,99966.08
2023-04-20T20:12:36.397Z,99961.19
2023-04-20T20:15:08.653Z,99956.27
2023-04-20T20:17:41.045Z,99946.97
2023-04-20T20:20:13.851Z,99950.80
2023-04-20T20:22:47.677Z,99955.30
2023-04-20T20:25:20.008Z,99960.74
2023-04-20T20:27:52.492Z,99971.40
2023-04-20T20:30:25.089Z,99971.66
2023-04-20T20:32:59.075Z,99971.91
2023-04-20T20:35:31.813Z,99960.80
2023-04-20T20:38:05.663Z,99967.09
2023-04-20T20:40:39.989Z,99967.27
2023-04-20T20:43:13.059Z,99968.30
2023-04-20T20:45:45.273Z,99965.86
2023-04-20T20:48:17.589Z,99960.59
2023-04-20T20:50:52.276Z,99958.95
2023-04-20T20:53:24.949Z,99959.33
2023-04-20T20:55:57.259Z,99956.28
2023-04-20T20:58:29.567Z,99954.02
2023-04-20T21:01:02.091Z,99949.25
2023-04-20T21:03:34.709Z,99950.55
2023-04-20T21:06:07.264Z,99953.51
2023-04-20T21:08:39.962Z,99948.60
2023-04-20T21:11:12.082Z,99943.75
2023-04-20T21:13:44.264Z,99950.30
2023-04-20T21:16:16.429Z,99949.68
2023-04-20T21:18:48.726Z,99939.41
2023-04-20T21:21:21.030Z,99937.09
2023-04-20T21:23:53.504Z,99939.91
2023-04-20T21:26:25.698Z,99939.29
2023-04-20T21:28:58.189Z,99937.75
2023-04-20T21:31:30.945Z,99940.66
2023-04-20T21:34:03.302Z,99939.95
2023-04-20T21:36:35.632Z,99932.33
2023-04-20T21:39:08.108Z,99935.11
2023-04-20T21:41:40.630Z,99927.58
2023-04-20T21:44:12.847Z,99933.84
2023-04-20T21:46:45.120Z,99929.77
2023-04-20T21:49:18.619Z,99935.25
2023-04-20T21:51:51.732Z,99932.77
2023-04-20T21:54:24.160Z,99935.66
2023-04-20T21:56:56.170Z,99934.95
2023-04-20T21:59:28.249Z,99925.46
2023-04-20T22:02:00.352Z,99928.34
2023-04-20T22:04:32.904Z,99932.06
2023-04-20T22:07:05.033Z,99920.17
2023-04-20T22:09:36.917Z,99930.00
2023-04-20T22:12:09.135Z,99927.59
2023-04-20T22:14:41.036Z,99926.05
2023-04-20T22:17:14.480Z,99926.30
2023-04-20T22:19:46.716Z,99920.34
2023-04-20T22:22:18.935Z,99929.23
2023-04-20T22:24:51.236Z,99916.32
2023-04-20T22:27:23.514Z,99919.95
2023-04-20T22:29:55.665Z,99913.95
2023-04-20T22:32:27.742Z,99913.27
2023-04-20T22:34:59.750Z,99915.11
2023-04-20T22:37:33.556Z,99922.30
2023-04-20T22:40:08.959Z,99915.58
2023-04-20T22:42:41.190Z,99915.80
2023-04-20T22:45:13.434Z,99915.25
2023-04-20T22:47:46.314Z,99911.23
2023-04-20T22:50:18.754Z,99906.98
2023-04-20T22:52:52.143Z,99906.30
2023-04-20T22:55:24.595Z,99908.23
2023-04-20T22:57:57.183Z,99901.34
2023-04-20T23:00:29.351Z,99899.55
2023-04-20T23:03:02.042Z,99905.61
2023-04-20T23:05:34.453Z,99896.98
2023-04-20T23:08:06.881Z,99899.69
2023-04-20T23:10:39.149Z,99898.99
2023-04-20T23:13:12.870Z,99901.94
2023-04-20T23:15:45.343Z,99901.35
2023-04-20T23:18:17.449Z,99900.66
2023-04-20T23:20:49.642Z,99902.59
2023-04-20T23:23:25.034Z,99895.01
2023-04-20T23:25:59.154Z,99895.94
2023-04-20T23:28:31.667Z,99886.52
2023-04-20T23:31:04.202Z,99887.52
2023-04-20T23:33:36.466Z,99887.66
2023-04-20T23:36:08.840Z,99886.90
2023-04-20T23:38:41.321Z,99874.72
2023-04-20T23:41:15.508Z,99882.72
2023-04-20T23:43:47.647Z,99881.17
2023-04-20T23:46:19.751Z,99877.69
2023-04-20T23:48:51.863Z,99883.79
2023-04-20T23:51:24.081Z,99876.86
2023-04-20T23:53:56.089Z,99879.48
2023-04-20T23:56:28.233Z,99879.55
2023-04-20T23:59:00.978Z,99881.30
